createdAt,value
2023-05-05T00:00:01.731Z,0.009000000000000001
2023-05-05T00:05:01.721Z,0
2023-05-05T00:10:01.800Z,0
2023-05-05T00:15:01.825Z,0.002
2023-05-05T00:20:01.798Z,0.001
2023-05-05T00:25:01.813Z,0.005
2023-05-05T00:30:01.763Z,0
2023-05-05T00:35:01.764Z,0.466
2023-05-05T00:40:01.796Z,1.3960000000000001
2023-05-05T00:45:01.818Z,1.409
2023-05-05T00:50:01.811Z,1.324
2023-05-05T00:55:01.814Z,0.784
2023-05-05T01:00:01.867Z,0.293
2023-05-05T01:05:01.822Z,0.017
2023-05-05T01:10:15.460Z,0.001
2023-05-05T01:15:01.810Z,0
2023-05-05T01:20:01.819Z,0
2023-05-05T01:25:01.837Z,0.005
2023-05-05T01:30:01.846Z,0.004
2023-05-05T01:35:01.863Z,0.013000000000000001
2023-05-05T01:40:01.876Z,0.003
2023-05-05T01:45:01.915Z,0.007
2023-05-05T01:50:01.859Z,0.023
2023-05-05T01:55:01.957Z,0.007
2023-05-05T02:00:01.890Z,0.007
2023-05-05T02:05:01.880Z,0.20700000000000002
2023-05-05T02:10:01.825Z,0
2023-05-05T02:15:01.887Z,0
2023-05-05T02:20:01.876Z,0
2023-05-05T02:25:01.877Z,0
2023-05-05T02:30:01.876Z,0.522
2023-05-05T02:35:01.959Z,0.17200000000000001
2023-05-05T02:40:01.910Z,0.003
2023-05-05T02:45:01.928Z,0
2023-05-05T02:50:01.888Z,0
2023-05-05T02:55:01.917Z,0.004
2023-05-05T03:00:01.977Z,0
2023-05-05T03:05:01.931Z,0.008
2023-05-05T03:10:02.210Z,0
2023-05-05T03:15:01.963Z,0
2023-05-05T03:20:03.709Z,0.019
2023-05-05T03:25:01.995Z,0.005
2023-05-05T03:30:01.988Z,0.006
2023-05-05T03:35:01.986Z,8.358
2023-05-05T03:40:02.038Z,37.863
2023-05-05T03:45:01.998Z,36.364
2023-05-05T03:50:02.072Z,50.262
2023-05-05T03:55:02.067Z,49.994
2023-05-05T04:00:02.123Z,71.537
2023-05-05T04:05:02.138Z,87.786
2023-05-05T04:10:02.103Z,103.596
2023-05-05T04:15:02.144Z,120.91
2023-05-05T04:20:02.199Z,137.691
2023-05-05T04:25:02.137Z,151.65800000000002
2023-05-05T04:30:02.126Z,166.297
2023-05-05T04:35:02.196Z,182.161
2023-05-05T04:40:02.179Z,200.786
2023-05-05T04:45:02.032Z,202.312
2023-05-05T04:50:02.017Z,221.707
2023-05-05T04:55:02.042Z,231.77
2023-05-05T05:00:01.994Z,240.31
2023-05-05T05:05:02.026Z,248.26500000000001
2023-05-05T05:10:02.071Z,258.101
2023-05-05T05:15:02.089Z,267.866
2023-05-05T05:20:02.001Z,279.493
2023-05-05T05:25:02.238Z,327.601
2023-05-05T05:30:02.080Z,379.375
2023-05-05T05:35:02.096Z,444.914
2023-05-05T05:40:02.142Z,527.721
2023-05-05T05:45:02.091Z,626.5500000000001
2023-05-05T05:50:02.066Z,749.865
2023-05-05T05:55:02.080Z,886.035
2023-05-05T06:00:02.441Z,1041.974
2023-05-05T06:05:01.995Z,1218.729
2023-05-05T06:10:11.215Z,1439.1680000000001
2023-05-05T06:15:02.042Z,1593.409
2023-05-05T06:20:02.115Z,1795.8600000000001
2023-05-05T06:25:02.120Z,2019.872
2023-05-05T06:30:02.079Z,2240.509
2023-05-05T06:35:02.140Z,2399.483
2023-05-05T06:40:02.151Z,2786.2960000000003
2023-05-05T06:45:02.138Z,3024.259
2023-05-05T06:50:02.089Z,3143.89
2023-05-05T06:55:02.254Z,3374.847
2023-05-05T07:00:02.106Z,3686.2470000000003
2023-05-05T07:05:02.110Z,4089.091
2023-05-05T07:10:02.185Z,4550.094
2023-05-05T07:15:09.519Z,3055.319
2023-05-05T07:20:02.135Z,4132.9
2023-05-05T07:25:02.182Z,4313.044
2023-05-05T07:30:03.331Z,3202.448
2023-05-05T07:35:02.152Z,4489.8550000000005
2023-05-05T07:40:02.217Z,4761.484
2023-05-05T07:45:02.213Z,3603.072
2023-05-05T07:50:02.250Z,3434.2690000000002
2023-05-05T07:55:02.158Z,4495.2880000000005
2023-05-05T08:00:02.105Z,5384.7480000000005
2023-05-05T08:05:02.201Z,5856.125
2023-05-05T08:10:02.176Z,5935.14
2023-05-05T08:15:02.240Z,6022.785
2023-05-05T08:20:02.184Z,6061.539
2023-05-05T08:25:02.174Z,6209.357
2023-05-05T08:30:02.260Z,6118.133
2023-05-05T08:35:02.193Z,6031.277
2023-05-05T08:40:02.251Z,6281.005
2023-05-05T08:45:02.345Z,6438.325
2023-05-05T08:50:02.261Z,6778.691
2023-05-05T08:55:02.223Z,6810.338
2023-05-05T09:00:02.295Z,6941.2970000000005
2023-05-05T09:05:02.224Z,5114.79
2023-05-05T09:10:02.304Z,4265.302
2023-05-05T09:15:02.246Z,3800.255
2023-05-05T09:20:02.295Z,3830.207
2023-05-05T09:25:02.503Z,4691.561
2023-05-05T09:30:02.370Z,5544.6900000000005
2023-05-05T09:35:02.371Z,4421.529
2023-05-05T09:40:02.458Z,4776.379
2023-05-05T09:45:02.502Z,4659.775000000001
2023-05-05T09:50:02.386Z,5305.674
2023-05-05T09:55:02.259Z,4508.912
2023-05-05T10:00:02.440Z,5594.326
2023-05-05T10:05:02.571Z,5382.742
2023-05-05T10:10:02.469Z,5573.184
2023-05-05T10:15:02.290Z,5410.117
2023-05-05T10:20:02.256Z,5386.392
2023-05-05T10:25:02.319Z,5425.207
2023-05-05T10:30:02.265Z,5604.828
2023-05-05T10:35:02.329Z,5672.055
2023-05-05T10:40:02.341Z,5630.6810000000005
2023-05-05T10:45:02.371Z,5939.847
2023-05-05T10:50:02.368Z,6101.542
2023-05-05T10:55:02.313Z,6168.017
2023-05-05T11:00:02.285Z,5565.9310000000005
2023-05-05T11:05:02.446Z,5625.174
2023-05-05T11:10:02.422Z,5144.572
2023-05-05T11:15:02.479Z,4734.2570000000005
2023-05-05T11:20:02.481Z,4770.017
2023-05-05T11:25:02.501Z,4753.608
2023-05-05T11:30:02.379Z,5061.291
2023-05-05T11:35:02.321Z,5035.2970000000005
2023-05-05T11:40:02.431Z,5265.203
2023-05-05T11:45:02.440Z,4704.996
2023-05-05T11:50:02.361Z,4985.409
2023-05-05T11:55:02.372Z,4970.649
2023-05-05T12:00:02.382Z,6209.854
2023-05-05T12:05:02.411Z,5968.8910000000005
2023-05-05T12:10:02.483Z,6874.213
2023-05-05T12:15:02.532Z,6748.379
2023-05-05T12:20:02.404Z,5740.4130000000005
2023-05-05T12:25:02.430Z,5141.729
2023-05-05T12:30:02.383Z,4976.021
2023-05-05T12:35:02.471Z,3937.414
2023-05-05T12:40:02.545Z,3662.449
2023-05-05T12:45:02.523Z,3886.088
2023-05-05T12:50:02.747Z,4557.092
2023-05-05T12:55:02.760Z,4479.493
2023-05-05T13:00:02.592Z,4028.63
2023-05-05T13:05:02.403Z,5288.329
2023-05-05T13:10:02.594Z,6202.31
2023-05-05T13:15:02.485Z,6364.121
2023-05-05T13:20:02.479Z,5117.643
2023-05-05T13:25:02.456Z,5855.75
2023-05-05T13:30:02.512Z,5393.789
2023-05-05T13:35:02.511Z,5328.154
2023-05-05T13:40:02.449Z,5835.581
2023-05-05T13:45:02.425Z,4479.077
2023-05-05T13:50:02.473Z,5138.71
2023-05-05T13:55:02.513Z,6631.71
2023-05-05T14:00:02.482Z,5015.359
2023-05-05T14:05:02.472Z,3193.7580000000003
2023-05-05T14:10:02.538Z,3936.367
2023-05-05T14:15:02.601Z,4509.353
2023-05-05T14:20:02.690Z,4500.285
2023-05-05T14:25:02.749Z,3331.015
2023-05-05T14:30:02.669Z,3268.6
2023-05-05T14:35:02.479Z,4380.361
2023-05-05T14:40:04.389Z,4335.37
2023-05-05T14:45:02.463Z,3633.846
2023-05-05T14:50:02.579Z,3208.401
2023-05-05T14:55:02.533Z,3741.408
2023-05-05T15:00:02.515Z,4129.802
2023-05-05T15:05:02.486Z,4039.294
2023-05-05T15:10:02.563Z,3340.884
2023-05-05T15:15:02.652Z,3393.213
2023-05-05T15:20:02.597Z,4303.551
2023-05-05T15:25:02.553Z,5140.836
2023-05-05T15:30:02.565Z,4481.486
2023-05-05T15:35:02.523Z,4666.444
2023-05-05T15:40:02.774Z,2572.522
2023-05-05T15:45:02.666Z,2110.215
2023-05-05T15:50:02.881Z,3808.532
2023-05-05T15:55:02.712Z,4008.635
2023-05-05T16:00:02.852Z,4074.4590000000003
2023-05-05T16:05:02.693Z,3784.6040000000003
2023-05-05T16:10:02.739Z,2620.567
2023-05-05T16:15:02.641Z,2087.5480000000002
2023-05-05T16:20:02.686Z,1976.2440000000001
2023-05-05T16:25:02.604Z,1651.334
2023-05-05T16:30:03.103Z,1370.871
2023-05-05T16:35:02.630Z,1188.457
2023-05-05T16:40:02.600Z,1152.02
2023-05-05T16:45:02.626Z,1094.653
2023-05-05T16:50:02.596Z,963.047
2023-05-05T16:55:02.703Z,801.4
2023-05-05T17:00:02.600Z,697.639
2023-05-05T17:05:02.768Z,632.4250000000001
2023-05-05T17:10:02.752Z,588.601
2023-05-05T17:15:02.675Z,566.932
2023-05-05T17:20:02.629Z,628.347
2023-05-05T17:25:02.647Z,721.658
2023-05-05T17:30:02.648Z,740.9110000000001
2023-05-05T17:35:02.695Z,708.962
2023-05-05T17:40:02.774Z,717.599
2023-05-05T17:45:02.742Z,580.898
2023-05-05T17:50:02.858Z,485.051
2023-05-05T17:55:02.824Z,414.331
2023-05-05T18:00:02.846Z,341.036
2023-05-05T18:05:02.895Z,264.123
2023-05-05T18:10:02.788Z,198.53900000000002
2023-05-05T18:15:02.738Z,141.744
2023-05-05T18:20:02.707Z,94.584
2023-05-05T18:25:02.660Z,50.142
2023-05-05T18:30:02.784Z,20.987000000000002
2023-05-05T18:35:02.746Z,27.247
2023-05-05T18:40:02.750Z,17.217
2023-05-05T18:45:02.795Z,0.44
2023-05-05T18:50:02.791Z,0.111
2023-05-05T18:55:02.717Z,0.111
2023-05-05T19:00:02.719Z,0.112
2023-05-05T19:05:02.915Z,0.098
2023-05-05T19:10:02.875Z,0
2023-05-05T19:15:02.807Z,0
2023-05-05T19:20:02.810Z,0
2023-05-05T19:25:02.734Z,0.004
2023-05-05T19:30:02.743Z,0.07
2023-05-05T19:35:02.771Z,0.166
2023-05-05T19:40:02.844Z,0.17300000000000001
2023-05-05T19:45:02.866Z,0.11900000000000001
2023-05-05T19:50:03.071Z,0.003
2023-05-05T19:55:02.950Z,0.045
2023-05-05T20:00:02.967Z,0.129
2023-05-05T20:05:03.032Z,0.1
2023-05-05T20:10:03.043Z,0.073
2023-05-05T20:15:02.817Z,0.10400000000000001
2023-05-05T20:20:02.769Z,0.045
2023-05-05T20:25:02.789Z,0
2023-05-05T20:30:02.865Z,0.131
2023-05-05T20:35:02.758Z,0.45
2023-05-05T20:40:02.838Z,0.268
2023-05-05T20:45:02.810Z,0.007
2023-05-05T20:50:02.831Z,0.132
2023-05-05T20:55:02.823Z,0.091
2023-05-05T21:00:02.916Z,0.09
2023-05-05T21:05:02.849Z,0.05
2023-05-05T21:10:02.926Z,0
2023-05-05T21:15:02.896Z,0.002
2023-05-05T21:20:02.901Z,0.015
2023-05-05T21:25:02.855Z,0.019
2023-05-05T21:30:02.984Z,0.025
2023-05-05T21:35:02.855Z,0.021
2023-05-05T21:40:02.924Z,0
2023-05-05T21:45:02.907Z,0.088
2023-05-05T21:50:02.941Z,0.121
2023-05-05T21:55:02.918Z,0.117
2023-05-05T22:00:02.871Z,0.116
2023-05-05T22:05:02.924Z,0.11900000000000001
2023-05-05T22:10:03.074Z,0.15
2023-05-05T22:15:03.077Z,0.164
2023-05-05T22:20:03.066Z,0.167
2023-05-05T22:25:02.894Z,0.045
2023-05-05T22:30:02.912Z,0.041
2023-05-05T22:35:02.960Z,0.46900000000000003
2023-05-05T22:40:02.957Z,0.5710000000000001
2023-05-05T22:45:02.936Z,0.507
2023-05-05T22:50:02.953Z,0.34
2023-05-05T22:55:02.926Z,0.10400000000000001
2023-05-05T23:00:02.937Z,0.18
2023-05-05T23:05:02.931Z,0.008
2023-05-05T23:10:03.008Z,0
2023-05-05T23:15:03.057Z,0
2023-05-05T23:20:02.991Z,0
2023-05-05T23:25:03.125Z,0
2023-05-05T23:30:03.107Z,0
2023-05-05T23:35:03.114Z,0
2023-05-05T23:40:02.984Z,0.073
2023-05-05T23:45:02.999Z,0
2023-05-05T23:50:03.071Z,0
2023-05-05T23:55:03.158Z,0
